sensor_id;sensor_type;location;lat;lon;timestamp;P1;durP1;ratioP1;P2;durP2;ratioP2
42864;SDS011;28511;42.680;23.252;2023-03-20T00:01:49;15.95;;;7.30;;
42864;SDS011;28511;42.680;23.252;2023-03-20T00:04:14;15.40;;;7.70;;
42864;SDS011;28511;42.680;23.252;2023-03-20T00:06:41;13.65;;;7.40;;
42864;SDS011;28511;42.680;23.252;2023-03-20T00:09:06;17.92;;;7.55;;
42864;SDS011;28511;42.680;23.252;2023-03-20T00:11:33;13.45;;;6.22;;
42864;SDS011;28511;42.680;23.252;2023-03-20T00:13:59;9.70;;;7.50;;
42864;SDS011;28511;42.680;23.252;2023-03-20T00:16:29;14.35;;;6.00;;
42864;SDS011;28511;42.680;23.252;2023-03-20T00:18:55;15.32;;;6.13;;
42864;SDS011;28511;42.680;23.252;2023-03-20T00:21:21;12.15;;;5.53;;
42864;SDS011;28511;42.680;23.252;2023-03-20T00:23:46;12.50;;;7.10;;
42864;SDS011;28511;42.680;23.252;2023-03-20T00:26:12;9.07;;;6.00;;
42864;SDS011;28511;42.680;23.252;2023-03-20T00:28:39;17.95;;;7.57;;
42864;SDS011;28511;42.680;23.252;2023-03-20T00:31:24;13.90;;;7.65;;
42864;SDS011;28511;42.680;23.252;2023-03-20T00:33:51;14.65;;;7.07;;
42864;SDS011;28511;42.680;23.252;2023-03-20T00:36:17;14.20;;;6.97;;
42864;SDS011;28511;42.680;23.252;2023-03-20T00:38:42;16.58;;;7.20;;
42864;SDS011;28511;42.680;23.252;2023-03-20T00:43:55;13.18;;;6.90;;
42864;SDS011;28511;42.680;23.252;2023-03-20T00:46:22;9.38;;;6.22;;
42864;SDS011;28511;42.680;23.252;2023-03-20T00:48:47;14.40;;;8.05;;
42864;SDS011;28511;42.680;23.252;2023-03-20T00:51:13;9.13;;;5.68;;
42864;SDS011;28511;42.680;23.252;2023-03-20T00:53:38;10.77;;;5.20;;
42864;SDS011;28511;42.680;23.252;2023-03-20T00:56:04;9.85;;;5.18;;
42864;SDS011;28511;42.680;23.252;2023-03-20T00:58:30;10.55;;;6.40;;
42864;SDS011;28511;42.680;23.252;2023-03-20T01:00:55;8.68;;;5.43;;
42864;SDS011;28511;42.680;23.252;2023-03-20T01:03:22;11.40;;;5.68;;
42864;SDS011;28511;42.680;23.252;2023-03-20T01:05:47;15.18;;;5.93;;
42864;SDS011;28511;42.680;23.252;2023-03-20T01:08:14;15.05;;;6.68;;
42864;SDS011;28511;42.680;23.252;2023-03-20T01:10:40;11.73;;;5.18;;
42864;SDS011;28511;42.680;23.252;2023-03-20T01:13:05;14.13;;;5.80;;
42864;SDS011;28511;42.680;23.252;2023-03-20T01:15:34;17.25;;;5.70;;
42864;SDS011;28511;42.680;23.252;2023-03-20T01:18:01;9.57;;;6.20;;
42864;SDS011;28511;42.680;23.252;2023-03-20T01:20:27;14.60;;;6.35;;
42864;SDS011;28511;42.680;23.252;2023-03-20T01:22:53;19.98;;;7.45;;
42864;SDS011;28511;42.680;23.252;2023-03-20T01:25:18;9.88;;;6.35;;
42864;SDS011;28511;42.680;23.252;2023-03-20T01:27:45;12.02;;;6.20;;
42864;SDS011;28511;42.680;23.252;2023-03-20T01:30:17;13.50;;;6.45;;
42864;SDS011;28511;42.680;23.252;2023-03-20T01:32:43;12.95;;;6.30;;
42864;SDS011;28511;42.680;23.252;2023-03-20T01:35:17;11.77;;;6.22;;
42864;SDS011;28511;42.680;23.252;2023-03-20T01:37:43;9.18;;;5.68;;
42864;SDS011;28511;42.680;23.252;2023-03-20T01:42:58;16.05;;;5.80;;
42864;SDS011;28511;42.680;23.252;2023-03-20T01:45:25;14.75;;;6.97;;
42864;SDS011;28511;42.680;23.252;2023-03-20T01:47:50;13.10;;;7.72;;
42864;SDS011;28511;42.680;23.252;2023-03-20T01:50:22;9.63;;;4.47;;
42864;SDS011;28511;42.680;23.252;2023-03-20T01:52:53;15.30;;;6.80;;
42864;SDS011;28511;42.680;23.252;2023-03-20T01:55:20;16.08;;;7.18;;
42864;SDS011;28511;42.680;23.252;2023-03-20T01:57:46;11.02;;;6.38;;
42864;SDS011;28511;42.680;23.252;2023-03-20T02:00:12;11.27;;;5.65;;
42864;SDS011;28511;42.680;23.252;2023-03-20T02:02:39;11.07;;;6.55;;
42864;SDS011;28511;42.680;23.252;2023-03-20T02:05:06;13.68;;;5.30;;
42864;SDS011;28511;42.680;23.252;2023-03-20T02:07:32;17.23;;;6.22;;
42864;SDS011;28511;42.680;23.252;2023-03-20T02:09:58;10.07;;;6.03;;
42864;SDS011;28511;42.680;23.252;2023-03-20T02:12:23;14.25;;;6.75;;
42864;SDS011;28511;42.680;23.252;2023-03-20T02:14:49;9.48;;;4.57;;
42864;SDS011;28511;42.680;23.252;2023-03-20T02:17:16;11.45;;;5.20;;
42864;SDS011;28511;42.680;23.252;2023-03-20T02:40:43;13.70;;;6.18;;
42864;SDS011;28511;42.680;23.252;2023-03-20T02:43:32;12.57;;;5.43;;
42864;SDS011;28511;42.680;23.252;2023-03-20T02:53:34;16.60;;;5.75;;
42864;SDS011;28511;42.680;23.252;2023-03-20T02:58:35;10.23;;;5.43;;
42864;SDS011;28511;42.680;23.252;2023-03-20T03:01:08;10.35;;;5.50;;
42864;SDS011;28511;42.680;23.252;2023-03-20T03:03:36;20.77;;;7.47;;
42864;SDS011;28511;42.680;23.252;2023-03-20T03:06:07;13.02;;;5.75;;
42864;SDS011;28511;42.680;23.252;2023-03-20T03:08:35;17.50;;;5.13;;
42864;SDS011;28511;42.680;23.252;2023-03-20T03:11:05;11.68;;;4.95;;
42864;SDS011;28511;42.680;23.252;2023-03-20T03:13:31;12.50;;;3.78;;
42864;SDS011;28511;42.680;23.252;2023-03-20T03:15:59;17.30;;;4.72;;
42864;SDS011;28511;42.680;23.252;2023-03-20T03:18:27;16.25;;;5.32;;
42864;SDS011;28511;42.680;23.252;2023-03-20T03:20:55;11.82;;;5.80;;
42864;SDS011;28511;42.680;23.252;2023-03-20T03:23:29;7.55;;;4.22;;
42864;SDS011;28511;42.680;23.252;2023-03-20T03:25:55;11.63;;;6.32;;
42864;SDS011;28511;42.680;23.252;2023-03-20T03:28:29;8.75;;;4.05;;
42864;SDS011;28511;42.680;23.252;2023-03-20T03:31:01;8.40;;;5.55;;
42864;SDS011;28511;42.680;23.252;2023-03-20T03:33:28;21.48;;;6.22;;
42864;SDS011;28511;42.680;23.252;2023-03-20T03:35:57;9.07;;;5.75;;
42864;SDS011;28511;42.680;23.252;2023-03-20T03:38:27;14.40;;;5.70;;
42864;SDS011;28511;42.680;23.252;2023-03-20T03:41:05;9.25;;;5.18;;
42864;SDS011;28511;42.680;23.252;2023-03-20T03:43:42;9.02;;;4.70;;
42864;SDS011;28511;42.680;23.252;2023-03-20T03:46:17;11.50;;;5.32;;
42864;SDS011;28511;42.680;23.252;2023-03-20T03:48:44;13.88;;;6.72;;
42864;SDS011;28511;42.680;23.252;2023-03-20T03:51:13;7.95;;;4.50;;
42864;SDS011;28511;42.680;23.252;2023-03-20T03:53:40;10.07;;;4.18;;
42864;SDS011;28511;42.680;23.252;2023-03-20T03:56:10;8.25;;;4.38;;
42864;SDS011;28511;42.680;23.252;2023-03-20T03:58:43;10.80;;;4.80;;
42864;SDS011;28511;42.680;23.252;2023-03-20T04:01:11;18.90;;;7.68;;
42864;SDS011;28511;42.680;23.252;2023-03-20T04:03:42;17.75;;;7.40;;
42864;SDS011;28511;42.680;23.252;2023-03-20T04:06:09;15.02;;;5.78;;
42864;SDS011;28511;42.680;23.252;2023-03-20T04:08:38;19.77;;;7.13;;
42864;SDS011;28511;42.680;23.252;2023-03-20T04:11:03;20.90;;;8.10;;
42864;SDS011;28511;42.680;23.252;2023-03-20T04:13:28;17.70;;;7.90;;
42864;SDS011;28511;42.680;23.252;2023-03-20T04:15:54;8.32;;;5.80;;
42864;SDS011;28511;42.680;23.252;2023-03-20T04:18:19;11.68;;;5.35;;
42864;SDS011;28511;42.680;23.252;2023-03-20T04:20:47;9.70;;;5.10;;
42864;SDS011;28511;42.680;23.252;2023-03-20T04:23:12;18.88;;;8.15;;
42864;SDS011;28511;42.680;23.252;2023-03-20T04:25:38;8.93;;;4.43;;
42864;SDS011;28511;42.680;23.252;2023-03-20T04:28:03;12.43;;;5.45;;
42864;SDS011;28511;42.680;23.252;2023-03-20T04:30:28;16.60;;;5.18;;
42864;SDS011;28511;42.680;23.252;2023-03-20T04:32:54;11.77;;;5.70;;
42864;SDS011;28511;42.680;23.252;2023-03-20T04:35:19;16.20;;;6.43;;
42864;SDS011;28511;42.680;23.252;2023-03-20T04:37:45;10.82;;;6.55;;
42864;SDS011;28511;42.680;23.252;2023-03-20T04:40:10;12.30;;;5.70;;
42864;SDS011;28511;42.680;23.252;2023-03-20T04:42:36;11.38;;;5.63;;
42864;SDS011;28511;42.680;23.252;2023-03-20T04:45:01;11.35;;;6.13;;
42864;SDS011;28511;42.680;23.252;2023-03-20T04:47:26;6.18;;;4.40;;
42864;SDS011;28511;42.680;23.252;2023-03-20T04:49:51;13.52;;;6.63;;
42864;SDS011;28511;42.680;23.252;2023-03-20T04:52:17;12.35;;;6.18;;
42864;SDS011;28511;42.680;23.252;2023-03-20T04:54:42;12.05;;;6.20;;
42864;SDS011;28511;42.680;23.252;2023-03-20T04:57:07;9.18;;;5.35;;
42864;SDS011;28511;42.680;23.252;2023-03-20T04:59:32;12.02;;;5.88;;
42864;SDS011;28511;42.680;23.252;2023-03-20T05:01:59;6.85;;;5.35;;
42864;SDS011;28511;42.680;23.252;2023-03-20T05:04:24;10.98;;;5.20;;
42864;SDS011;28511;42.680;23.252;2023-03-20T05:06:50;14.80;;;6.15;;
42864;SDS011;28511;42.680;23.252;2023-03-20T05:09:15;14.57;;;7.25;;
42864;SDS011;28511;42.680;23.252;2023-03-20T05:11:41;13.00;;;7.13;;
42864;SDS011;28511;42.680;23.252;2023-03-20T05:14:07;16.50;;;8.63;;
42864;SDS011;28511;42.680;23.252;2023-03-20T05:16:33;18.15;;;8.02;;
42864;SDS011;28511;42.680;23.252;2023-03-20T05:18:58;12.07;;;7.55;;
42864;SDS011;28511;42.680;23.252;2023-03-20T05:21:23;18.48;;;7.38;;
42864;SDS011;28511;42.680;23.252;2023-03-20T05:23:48;16.75;;;8.35;;
42864;SDS011;28511;42.680;23.252;2023-03-20T05:26:14;16.83;;;9.43;;
42864;SDS011;28511;42.680;23.252;2023-03-20T05:28:39;21.75;;;9.23;;
42864;SDS011;28511;42.680;23.252;2023-03-20T05:31:05;24.25;;;10.65;;
42864;SDS011;28511;42.680;23.252;2023-03-20T05:33:30;19.13;;;8.85;;
42864;SDS011;28511;42.680;23.252;2023-03-20T05:35:56;26.08;;;11.38;;
42864;SDS011;28511;42.680;23.252;2023-03-20T05:38:21;21.52;;;9.00;;
42864;SDS011;28511;42.680;23.252;2023-03-20T05:40:47;21.20;;;10.25;;
42864;SDS011;28511;42.680;23.252;2023-03-20T05:43:12;18.42;;;11.02;;
42864;SDS011;28511;42.680;23.252;2023-03-20T05:45:38;17.15;;;9.20;;
42864;SDS011;28511;42.680;23.252;2023-03-20T05:48:03;18.03;;;9.07;;
42864;SDS011;28511;42.680;23.252;2023-03-20T05:50:28;15.77;;;8.52;;
42864;SDS011;28511;42.680;23.252;2023-03-20T05:52:53;27.70;;;9.07;;
42864;SDS011;28511;42.680;23.252;2023-03-20T05:55:19;18.30;;;10.00;;
42864;SDS011;28511;42.680;23.252;2023-03-20T05:57:44;19.60;;;8.95;;
42864;SDS011;28511;42.680;23.252;2023-03-20T06:00:09;20.20;;;8.27;;
42864;SDS011;28511;42.680;23.252;2023-03-20T06:02:35;14.43;;;8.20;;
42864;SDS011;28511;42.680;23.252;2023-03-20T06:05:01;22.00;;;8.55;;
42864;SDS011;28511;42.680;23.252;2023-03-20T06:07:26;17.45;;;9.80;;
42864;SDS011;28511;42.680;23.252;2023-03-20T06:09:51;20.63;;;8.93;;
42864;SDS011;28511;42.680;23.252;2023-03-20T06:12:16;24.40;;;9.00;;
42864;SDS011;28511;42.680;23.252;2023-03-20T06:14:42;17.93;;;9.87;;
42864;SDS011;28511;42.680;23.252;2023-03-20T06:17:07;19.00;;;9.27;;
42864;SDS011;28511;42.680;23.252;2023-03-20T06:19:32;20.77;;;10.52;;
42864;SDS011;28511;42.680;23.252;2023-03-20T06:21:58;22.63;;;8.52;;
42864;SDS011;28511;42.680;23.252;2023-03-20T06:24:23;15.00;;;8.43;;
42864;SDS011;28511;42.680;23.252;2023-03-20T06:26:49;15.98;;;8.35;;
42864;SDS011;28511;42.680;23.252;2023-03-20T06:29:14;23.77;;;11.48;;
42864;SDS011;28511;42.680;23.252;2023-03-20T06:31:39;25.48;;;13.68;;
42864;SDS011;28511;42.680;23.252;2023-03-20T06:34:05;32.58;;;16.80;;
42864;SDS011;28511;42.680;23.252;2023-03-20T06:36:30;24.13;;;14.27;;
42864;SDS011;28511;42.680;23.252;2023-03-20T06:38:56;23.70;;;12.98;;
42864;SDS011;28511;42.680;23.252;2023-03-20T06:41:21;24.80;;;14.30;;
42864;SDS011;28511;42.680;23.252;2023-03-20T06:43:46;27.35;;;16.15;;
42864;SDS011;28511;42.680;23.252;2023-03-20T06:46:12;29.23;;;15.18;;
42864;SDS011;28511;42.680;23.252;2023-03-20T06:48:37;26.92;;;15.82;;
42864;SDS011;28511;42.680;23.252;2023-03-20T06:51:03;24.70;;;13.63;;
42864;SDS011;28511;42.680;23.252;2023-03-20T06:53:28;26.77;;;14.50;;
42864;SDS011;28511;42.680;23.252;2023-03-20T06:55:53;26.30;;;13.80;;
42864;SDS011;28511;42.680;23.252;2023-03-20T06:58:18;27.40;;;14.93;;
42864;SDS011;28511;42.680;23.252;2023-03-20T07:00:44;31.17;;;13.75;;
42864;SDS011;28511;42.680;23.252;2023-03-20T07:03:10;21.65;;;12.52;;
42864;SDS011;28511;42.680;23.252;2023-03-20T07:05:35;24.52;;;13.32;;
42864;SDS011;28511;42.680;23.252;2023-03-20T07:08:02;21.58;;;11.90;;
42864;SDS011;28511;42.680;23.252;2023-03-20T07:10:27;20.33;;;13.18;;
42864;SDS011;28511;42.680;23.252;2023-03-20T07:12:53;24.67;;;13.23;;
42864;SDS011;28511;42.680;23.252;2023-03-20T07:15:19;19.95;;;10.38;;
42864;SDS011;28511;42.680;23.252;2023-03-20T07:17:44;17.73;;;9.93;;
42864;SDS011;28511;42.680;23.252;2023-03-20T07:20:10;19.23;;;11.30;;
42864;SDS011;28511;42.680;23.252;2023-03-20T07:22:35;19.35;;;10.05;;
42864;SDS011;28511;42.680;23.252;2023-03-20T07:25:01;18.95;;;9.85;;
42864;SDS011;28511;42.680;23.252;2023-03-20T07:27:26;19.17;;;8.52;;
42864;SDS011;28511;42.680;23.252;2023-03-20T07:29:52;19.15;;;8.85;;
42864;SDS011;28511;42.680;23.252;2023-03-20T07:32:17;17.42;;;10.07;;
42864;SDS011;28511;42.680;23.252;2023-03-20T07:34:43;19.15;;;8.80;;
42864;SDS011;28511;42.680;23.252;2023-03-20T07:37:08;17.92;;;9.85;;
42864;SDS011;28511;42.680;23.252;2023-03-20T07:39:34;17.83;;;9.38;;
42864;SDS011;28511;42.680;23.252;2023-03-20T07:41:59;18.63;;;9.52;;
42864;SDS011;28511;42.680;23.252;2023-03-20T07:44:25;18.75;;;9.80;;
42864;SDS011;28511;42.680;23.252;2023-03-20T07:46:50;18.57;;;9.47;;
42864;SDS011;28511;42.680;23.252;2023-03-20T07:49:16;21.73;;;9.05;;
42864;SDS011;28511;42.680;23.252;2023-03-20T07:51:44;18.65;;;9.07;;
42864;SDS011;28511;42.680;23.252;2023-03-20T07:54:10;11.88;;;5.57;;
42864;SDS011;28511;42.680;23.252;2023-03-20T07:56:35;11.00;;;5.30;;
42864;SDS011;28511;42.680;23.252;2023-03-20T07:59:01;13.48;;;7.20;;
42864;SDS011;28511;42.680;23.252;2023-03-20T08:01:26;12.40;;;6.95;;
42864;SDS011;28511;42.680;23.252;2023-03-20T08:03:51;12.53;;;7.23;;
42864;SDS011;28511;42.680;23.252;2023-03-20T08:06:16;14.27;;;7.77;;
42864;SDS011;28511;42.680;23.252;2023-03-20T08:08:42;13.30;;;7.53;;
42864;SDS011;28511;42.680;23.252;2023-03-20T08:11:09;23.45;;;9.10;;
42864;SDS011;28511;42.680;23.252;2023-03-20T08:13:34;13.05;;;7.35;;
42864;SDS011;28511;42.680;23.252;2023-03-20T08:15:59;17.63;;;6.70;;
42864;SDS011;28511;42.680;23.252;2023-03-20T08:18:24;15.60;;;7.30;;
42864;SDS011;28511;42.680;23.252;2023-03-20T08:20:50;11.95;;;7.03;;
42864;SDS011;28511;42.680;23.252;2023-03-20T08:23:15;13.70;;;6.47;;
42864;SDS011;28511;42.680;23.252;2023-03-20T08:25:45;14.82;;;7.53;;
42864;SDS011;28511;42.680;23.252;2023-03-20T08:28:11;8.88;;;5.72;;
42864;SDS011;28511;42.680;23.252;2023-03-20T08:30:36;11.32;;;6.53;;
42864;SDS011;28511;42.680;23.252;2023-03-20T08:33:02;14.77;;;5.85;;
42864;SDS011;28511;42.680;23.252;2023-03-20T08:35:27;10.88;;;6.68;;
42864;SDS011;28511;42.680;23.252;2023-03-20T08:37:53;9.30;;;5.32;;
42864;SDS011;28511;42.680;23.252;2023-03-20T08:40:18;13.00;;;6.67;;
42864;SDS011;28511;42.680;23.252;2023-03-20T08:42:43;14.60;;;6.90;;
42864;SDS011;28511;42.680;23.252;2023-03-20T08:45:09;13.17;;;6.17;;
42864;SDS011;28511;42.680;23.252;2023-03-20T08:47:35;12.35;;;5.88;;
42864;SDS011;28511;42.680;23.252;2023-03-20T08:50:00;12.90;;;6.97;;
42864;SDS011;28511;42.680;23.252;2023-03-20T08:52:25;16.53;;;7.37;;
42864;SDS011;28511;42.680;23.252;2023-03-20T08:54:51;15.95;;;8.02;;
42864;SDS011;28511;42.680;23.252;2023-03-20T08:57:17;14.13;;;5.93;;
42864;SDS011;28511;42.680;23.252;2023-03-20T08:59:42;11.55;;;6.45;;
42864;SDS011;28511;42.680;23.252;2023-03-20T09:02:08;12.48;;;5.43;;
42864;SDS011;28511;42.680;23.252;2023-03-20T09:04:35;9.70;;;6.22;;
42864;SDS011;28511;42.680;23.252;2023-03-20T09:07:00;13.88;;;5.65;;
42864;SDS011;28511;42.680;23.252;2023-03-20T09:09:27;10.18;;;6.35;;
42864;SDS011;28511;42.680;23.252;2023-03-20T09:11:56;10.85;;;6.45;;
42864;SDS011;28511;42.680;23.252;2023-03-20T09:14:22;16.52;;;6.60;;
42864;SDS011;28511;42.680;23.252;2023-03-20T09:16:47;15.98;;;6.93;;
42864;SDS011;28511;42.680;23.252;2023-03-20T09:19:13;14.25;;;6.68;;
42864;SDS011;28511;42.680;23.252;2023-03-20T09:21:38;11.23;;;6.35;;
42864;SDS011;28511;42.680;23.252;2023-03-20T09:24:03;15.33;;;7.33;;
42864;SDS011;28511;42.680;23.252;2023-03-20T09:26:29;14.77;;;6.32;;
42864;SDS011;28511;42.680;23.252;2023-03-20T09:28:54;13.25;;;7.80;;
42864;SDS011;28511;42.680;23.252;2023-03-20T09:31:19;13.30;;;7.43;;
42864;SDS011;28511;42.680;23.252;2023-03-20T09:33:45;16.10;;;6.82;;
42864;SDS011;28511;42.680;23.252;2023-03-20T09:36:10;11.63;;;7.00;;
42864;SDS011;28511;42.680;23.252;2023-03-20T09:38:36;15.60;;;7.78;;
42864;SDS011;28511;42.680;23.252;2023-03-20T09:41:02;11.98;;;7.10;;
42864;SDS011;28511;42.680;23.252;2023-03-20T09:43:32;10.82;;;6.88;;
42864;SDS011;28511;42.680;23.252;2023-03-20T09:51:02;11.82;;;7.10;;
42864;SDS011;28511;42.680;23.252;2023-03-20T09:53:38;12.52;;;6.82;;
42864;SDS011;28511;42.680;23.252;2023-03-20T09:56:05;16.90;;;8.07;;
42864;SDS011;28511;42.680;23.252;2023-03-20T09:58:34;14.82;;;7.70;;
42864;SDS011;28511;42.680;23.252;2023-03-20T10:01:02;14.02;;;7.72;;
42864;SDS011;28511;42.680;23.252;2023-03-20T10:03:31;15.00;;;8.27;;
42864;SDS011;28511;42.680;23.252;2023-03-20T10:06:01;12.15;;;6.82;;
42864;SDS011;28511;42.680;23.252;2023-03-20T10:08:34;16.00;;;9.15;;
42864;SDS011;28511;42.680;23.252;2023-03-20T10:13:50;12.40;;;6.68;;
42864;SDS011;28511;42.680;23.252;2023-03-20T10:21:43;13.15;;;8.32;;
42864;SDS011;28511;42.680;23.252;2023-03-20T10:24:20;12.05;;;6.57;;
42864;SDS011;28511;42.680;23.252;2023-03-20T10:26:50;12.30;;;7.00;;
42864;SDS011;28511;42.680;23.252;2023-03-20T10:29:25;16.58;;;7.30;;
42864;SDS011;28511;42.680;23.252;2023-03-20T10:42:15;13.20;;;7.38;;
42864;SDS011;28511;42.680;23.252;2023-03-20T10:44:43;12.48;;;7.60;;
42864;SDS011;28511;42.680;23.252;2023-03-20T10:47:11;12.48;;;7.57;;
42864;SDS011;28511;42.680;23.252;2023-03-20T10:52:09;12.25;;;7.03;;
42864;SDS011;28511;42.680;23.252;2023-03-20T10:54:40;12.68;;;7.60;;
42864;SDS011;28511;42.680;23.252;2023-03-20T10:57:08;13.55;;;7.43;;
42864;SDS011;28511;42.680;23.252;2023-03-20T10:59:37;10.07;;;6.22;;
42864;SDS011;28511;42.680;23.252;2023-03-20T11:02:08;14.55;;;7.43;;
42864;SDS011;28511;42.680;23.252;2023-03-20T11:04:34;11.88;;;6.32;;
42864;SDS011;28511;42.680;23.252;2023-03-20T11:07:01;16.60;;;7.00;;
42864;SDS011;28511;42.680;23.252;2023-03-20T11:09:27;14.52;;;7.28;;
42864;SDS011;28511;42.680;23.252;2023-03-20T11:11:56;12.48;;;7.22;;
42864;SDS011;28511;42.680;23.252;2023-03-20T11:14:22;13.95;;;8.00;;
42864;SDS011;28511;42.680;23.252;2023-03-20T11:16:48;15.10;;;6.80;;
42864;SDS011;28511;42.680;23.252;2023-03-20T11:19:15;14.25;;;8.18;;
42864;SDS011;28511;42.680;23.252;2023-03-20T11:21:50;14.73;;;7.45;;
42864;SDS011;28511;42.680;23.252;2023-03-20T11:24:21;18.00;;;7.65;;
42864;SDS011;28511;42.680;23.252;2023-03-20T11:26:48;12.18;;;7.72;;
42864;SDS011;28511;42.680;23.252;2023-03-20T11:29:31;14.80;;;8.40;;
42864;SDS011;28511;42.680;23.252;2023-03-20T11:32:06;12.32;;;7.15;;
42864;SDS011;28511;42.680;23.252;2023-03-20T11:34:32;10.95;;;6.32;;
42864;SDS011;28511;42.680;23.252;2023-03-20T11:37:00;17.85;;;8.07;;
42864;SDS011;28511;42.680;23.252;2023-03-20T11:39:30;12.52;;;6.53;;
42864;SDS011;28511;42.680;23.252;2023-03-20T11:42:01;17.85;;;7.35;;
42864;SDS011;28511;42.680;23.252;2023-03-20T11:44:32;13.80;;;7.17;;
42864;SDS011;28511;42.680;23.252;2023-03-20T11:47:11;14.02;;;7.30;;
42864;SDS011;28511;42.680;23.252;2023-03-20T11:49:44;14.90;;;7.40;;
42864;SDS011;28511;42.680;23.252;2023-03-20T11:52:12;12.02;;;7.18;;
42864;SDS011;28511;42.680;23.252;2023-03-20T11:54:38;26.20;;;6.55;;
42864;SDS011;28511;42.680;23.252;2023-03-20T11:57:23;12.07;;;6.57;;
42864;SDS011;28511;42.680;23.252;2023-03-20T11:59:52;12.77;;;5.88;;
42864;SDS011;28511;42.680;23.252;2023-03-20T12:02:19;14.02;;;7.13;;
42864;SDS011;28511;42.680;23.252;2023-03-20T12:04:45;11.77;;;6.47;;
42864;SDS011;28511;42.680;23.252;2023-03-20T12:07:12;14.48;;;5.65;;
42864;SDS011;28511;42.680;23.252;2023-03-20T12:12:18;10.07;;;5.57;;
42864;SDS011;28511;42.680;23.252;2023-03-20T12:14:57;7.53;;;4.72;;
42864;SDS011;28511;42.680;23.252;2023-03-20T12:20:00;10.98;;;5.45;;
42864;SDS011;28511;42.680;23.252;2023-03-20T12:22:30;13.73;;;5.43;;
42864;SDS011;28511;42.680;23.252;2023-03-20T12:25:01;7.30;;;4.78;;
42864;SDS011;28511;42.680;23.252;2023-03-20T12:27:38;5.38;;;3.47;;
42864;SDS011;28511;42.680;23.252;2023-03-20T12:30:26;9.20;;;3.78;;
42864;SDS011;28511;42.680;23.252;2023-03-20T12:32:57;7.82;;;3.85;;
42864;SDS011;28511;42.680;23.252;2023-03-20T12:35:33;6.47;;;3.40;;
42864;SDS011;28511;42.680;23.252;2023-03-20T12:38:00;6.18;;;3.28;;
42864;SDS011;28511;42.680;23.252;2023-03-20T12:40:41;4.38;;;2.95;;
42864;SDS011;28511;42.680;23.252;2023-03-20T12:43:13;6.47;;;3.45;;
42864;SDS011;28511;42.680;23.252;2023-03-20T12:45:39;7.13;;;3.53;;
42864;SDS011;28511;42.680;23.252;2023-03-20T12:50:48;4.97;;;2.55;;
42864;SDS011;28511;42.680;23.252;2023-03-20T12:58:38;2.50;;;1.92;;
42864;SDS011;28511;42.680;23.252;2023-03-20T13:01:16;3.35;;;1.90;;
42864;SDS011;28511;42.680;23.252;2023-03-20T13:14:16;5.00;;;2.15;;
42864;SDS011;28511;42.680;23.252;2023-03-20T13:19:18;2.83;;;1.45;;
42864;SDS011;28511;42.680;23.252;2023-03-20T13:24:49;3.10;;;1.95;;
42864;SDS011;28511;42.680;23.252;2023-03-20T13:27:18;4.53;;;1.83;;
42864;SDS011;28511;42.680;23.252;2023-03-20T13:29:52;4.10;;;1.88;;
42864;SDS011;28511;42.680;23.252;2023-03-20T13:32:23;4.30;;;2.20;;
42864;SDS011;28511;42.680;23.252;2023-03-20T13:35:12;2.65;;;1.80;;
42864;SDS011;28511;42.680;23.252;2023-03-20T13:37:47;3.60;;;1.58;;
42864;SDS011;28511;42.680;23.252;2023-03-20T13:40:15;5.28;;;1.85;;
42864;SDS011;28511;42.680;23.252;2023-03-20T13:45:20;3.63;;;1.88;;
42864;SDS011;28511;42.680;23.252;2023-03-20T13:47:48;4.83;;;1.70;;
42864;SDS011;28511;42.680;23.252;2023-03-20T13:50:26;4.05;;;2.08;;
42864;SDS011;28511;42.680;23.252;2023-03-20T14:01:06;3.30;;;1.80;;
42864;SDS011;28511;42.680;23.252;2023-03-20T14:03:36;4.90;;;1.88;;
42864;SDS011;28511;42.680;23.252;2023-03-20T14:06:41;1.75;;;1.38;;
42864;SDS011;28511;42.680;23.252;2023-03-20T14:09:00;2.88;;;1.92;;
42864;SDS011;28511;42.680;23.252;2023-03-20T14:11:29;3.70;;;2.25;;
42864;SDS011;28511;42.680;23.252;2023-03-20T14:14:06;2.83;;;1.40;;
42864;SDS011;28511;42.680;23.252;2023-03-20T14:16:32;4.80;;;1.98;;
42864;SDS011;28511;42.680;23.252;2023-03-20T14:19:05;3.70;;;1.80;;
42864;SDS011;28511;42.680;23.252;2023-03-20T14:21:30;2.53;;;1.48;;
42864;SDS011;28511;42.680;23.252;2023-03-20T14:24:05;3.60;;;1.70;;
42864;SDS011;28511;42.680;23.252;2023-03-20T14:26:34;4.63;;;2.63;;
42864;SDS011;28511;42.680;23.252;2023-03-20T14:31:33;4.93;;;1.73;;
42864;SDS011;28511;42.680;23.252;2023-03-20T14:36:28;3.07;;;1.80;;
42864;SDS011;28511;42.680;23.252;2023-03-20T14:38:58;3.45;;;1.40;;
42864;SDS011;28511;42.680;23.252;2023-03-20T14:43:57;3.47;;;1.80;;
42864;SDS011;28511;42.680;23.252;2023-03-20T14:48:51;14.77;;;2.00;;
42864;SDS011;28511;42.680;23.252;2023-03-20T14:51:25;3.67;;;2.13;;
42864;SDS011;28511;42.680;23.252;2023-03-20T14:56:39;4.30;;;2.08;;
42864;SDS011;28511;42.680;23.252;2023-03-20T14:59:04;3.72;;;2.30;;
42864;SDS011;28511;42.680;23.252;2023-03-20T15:01:41;3.40;;;1.90;;
42864;SDS011;28511;42.680;23.252;2023-03-20T15:04:08;2.25;;;1.35;;
42864;SDS011;28511;42.680;23.252;2023-03-20T15:06:51;4.38;;;1.85;;
42864;SDS011;28511;42.680;23.252;2023-03-20T15:09:16;4.55;;;2.53;;
42864;SDS011;28511;42.680;23.252;2023-03-20T15:11:44;4.65;;;2.15;;
42864;SDS011;28511;42.680;23.252;2023-03-20T15:14:12;4.50;;;2.35;;
42864;SDS011;28511;42.680;23.252;2023-03-20T15:16:40;3.30;;;1.85;;
42864;SDS011;28511;42.680;23.252;2023-03-20T15:19:16;6.20;;;1.90;;
42864;SDS011;28511;42.680;23.252;2023-03-20T15:21:43;6.25;;;1.75;;
42864;SDS011;28511;42.680;23.252;2023-03-20T15:24:14;4.25;;;2.35;;
42864;SDS011;28511;42.680;23.252;2023-03-20T15:26:41;6.05;;;2.58;;
42864;SDS011;28511;42.680;23.252;2023-03-20T15:29:09;2.65;;;1.98;;
42864;SDS011;28511;42.680;23.252;2023-03-20T15:31:36;2.90;;;2.00;;
42864;SDS011;28511;42.680;23.252;2023-03-20T15:34:03;4.80;;;2.00;;
42864;SDS011;28511;42.680;23.252;2023-03-20T15:36:31;4.57;;;1.77;;
42864;SDS011;28511;42.680;23.252;2023-03-20T15:39:20;2.10;;;1.75;;
42864;SDS011;28511;42.680;23.252;2023-03-20T15:41:56;3.75;;;2.50;;
42864;SDS011;28511;42.680;23.252;2023-03-20T15:44:35;7.63;;;3.65;;
42864;SDS011;28511;42.680;23.252;2023-03-20T15:49:36;5.95;;;2.60;;
42864;SDS011;28511;42.680;23.252;2023-03-20T15:52:06;7.18;;;3.60;;
42864;SDS011;28511;42.680;23.252;2023-03-20T15:54:32;6.07;;;2.78;;
42864;SDS011;28511;42.680;23.252;2023-03-20T15:56:58;6.60;;;3.58;;
42864;SDS011;28511;42.680;23.252;2023-03-20T15:59:26;5.47;;;2.80;;
42864;SDS011;28511;42.680;23.252;2023-03-20T16:01:54;10.32;;;3.92;;
42864;SDS011;28511;42.680;23.252;2023-03-20T16:04:20;8.48;;;3.40;;
42864;SDS011;28511;42.680;23.252;2023-03-20T16:06:48;7.47;;;3.40;;
42864;SDS011;28511;42.680;23.252;2023-03-20T16:09:15;6.53;;;2.97;;
42864;SDS011;28511;42.680;23.252;2023-03-20T16:11:42;7.15;;;2.50;;
42864;SDS011;28511;42.680;23.252;2023-03-20T16:14:09;6.22;;;3.55;;
42864;SDS011;28511;42.680;23.252;2023-03-20T16:16:36;6.18;;;3.70;;
42864;SDS011;28511;42.680;23.252;2023-03-20T16:19:03;5.70;;;3.05;;
42864;SDS011;28511;42.680;23.252;2023-03-20T16:21:29;5.55;;;2.95;;
42864;SDS011;28511;42.680;23.252;2023-03-20T16:23:56;10.85;;;2.78;;
42864;SDS011;28511;42.680;23.252;2023-03-20T16:26:23;8.32;;;3.63;;